Aviation Digital Data Service (ADDS)

Output produced by METARs form (0017 UTC 07 July 2015)
found at http://aviationweather.gov/adds/metars/
 
KLAS 070002Z 0700/0724 16009KT P6SM VCTS SCT100CB BKN200 
     TEMPO 0700/0704 VRB15G25KT 
     FM070500 25008KT P6SM SCT120 BKN150 
     FM071000 VRB06KT P6SM FEW120 SCT150 
     FM072100 20009KT P6SM SCT120 BKN200